Time;durP1;ratioP1;P1;durP2;ratioP2;P2;SDS_P1;SDS_P2;PMS_P1;PMS_P2;Temp;Humidity;BMP_temperature;BMP_pressure;BME280_temperature;BME280_humidity;BME280_pressure;Samples;Min_cycle;Max_cycle;Signal;HPM_P1;HPM_P2
2023/08/15 00:01:57;;;;;;;4.32;2.35;;;22.80;99.90;;;;;;4966429;28;20321;-66
2023/08/15 00:04:24;;;;;;;7.93;2.65;;;22.80;99.90;;;;;;4966347;28;20211;-66
2023/08/15 00:06:51;;;;;;;2.75;2.25;;;22.80;99.90;;;;;;4966276;28;20211;-66
2023/08/15 00:09:18;;;;;;;3.55;2.55;;;22.90;99.90;;;;;;4965469;28;20216;-66
2023/08/15 00:11:45;;;;;;;3.35;2.30;;;22.90;99.90;;;;;;4965799;28;20345;-66
2023/08/15 00:14:12;;;;;;;2.92;2.40;;;22.90;99.90;;;;;;4965718;28;20214;-66
2023/08/15 00:16:40;;;;;;;4.60;2.30;;;22.90;99.90;;;;;;4953248;28;20318;-66
2023/08/15 00:19:07;;;;;;;5.50;2.50;;;22.80;99.90;;;;;;4946624;28;20217;-66
2023/08/15 00:21:34;;;;;;;4.82;2.50;;;22.90;99.90;;;;;;4946795;28;20302;-66
2023/08/15 00:24:01;;;;;;;3.83;2.63;;;22.90;99.90;;;;;;4953982;28;20299;-66
2023/08/15 00:26:27;;;;;;;4.43;2.00;;;22.90;99.90;;;;;;4980144;28;20309;-66
2023/08/15 00:28:54;;;;;;;2.80;2.47;;;23.00;99.90;;;;;;4985422;28;20209;-66
2023/08/15 00:31:21;;;;;;;3.40;2.50;;;23.00;99.90;;;;;;4981111;28;20294;-66
2023/08/15 00:33:49;;;;;;;3.58;2.38;;;23.00;99.90;;;;;;4965732;28;20302;-66
2023/08/15 00:36:17;;;;;;;2.88;2.42;;;23.00;99.90;;;;;;4965882;28;20309;-66
2023/08/15 00:38:44;;;;;;;2.47;2.10;;;22.90;99.90;;;;;;4965878;28;20301;-66
2023/08/15 00:41:11;;;;;;;2.75;2.50;;;23.00;99.90;;;;;;4956629;28;20282;-66
2023/08/15 00:43:38;;;;;;;3.65;2.30;;;23.10;99.90;;;;;;4966308;28;20335;-67
2023/08/15 00:46:07;;;;;;;2.05;1.90;;;23.10;99.90;;;;;;4965566;28;20314;-66
2023/08/15 00:48:35;;;;;;;5.55;2.05;;;23.10;99.90;;;;;;4965464;28;20302;-66
2023/08/15 00:51:04;;;;;;;3.85;2.55;;;23.10;99.90;;;;;;4965538;28;20207;-66
2023/08/15 00:53:34;;;;;;;4.05;1.98;;;23.10;99.90;;;;;;4967623;28;20203;-66
2023/08/15 00:56:01;;;;;;;3.63;2.30;;;23.00;99.90;;;;;;4969270;28;20764;-66
2023/08/15 00:58:30;;;;;;;2.30;1.85;;;23.00;99.90;;;;;;4969235;28;20337;-66
2023/08/15 01:00:57;;;;;;;2.40;1.73;;;23.00;99.90;;;;;;4969494;28;20322;-65
2023/08/15 01:03:24;;;;;;;1.77;1.67;;;23.00;99.90;;;;;;4969414;28;20690;-65
2023/08/15 01:05:51;;;;;;;2.45;2.03;;;22.90;99.90;;;;;;4969186;28;20202;-65
2023/08/15 01:08:19;;;;;;;2.97;2.05;;;22.90;99.90;;;;;;4969469;28;20215;-65
2023/08/15 01:10:46;;;;;;;4.30;2.45;;;23.00;99.90;;;;;;4969198;28;20681;-65
2023/08/15 01:13:31;;;;;;;2.40;1.92;;;22.90;99.90;;;;;;4968950;28;20680;-65
2023/08/15 01:15:58;;;;;;;3.83;2.00;;;22.90;99.90;;;;;;4969564;28;20306;-65
2023/08/15 01:18:30;;;;;;;2.20;1.88;;;22.90;99.90;;;;;;4969088;28;20211;-65
2023/08/15 01:20:57;;;;;;;2.38;2.13;;;22.90;99.90;;;;;;4969180;28;20969;-65
2023/08/15 01:23:37;;;;;;;2.92;1.60;;;22.80;99.90;;;;;;4968689;28;20792;-65
2023/08/15 01:26:03;;;;;;;2.10;1.60;;;22.80;99.90;;;;;;4969239;28;20800;-65
2023/08/15 01:28:31;;;;;;;1.70;1.60;;;22.80;99.90;;;;;;4968783;28;20721;-66
2023/08/15 01:31:06;;;;;;;1.90;1.65;;;22.80;99.90;;;;;;4968382;28;20206;-66
2023/08/15 01:33:40;;;;;;;2.40;1.50;;;22.80;99.90;;;;;;4968844;28;20763;-66
2023/08/15 01:36:14;;;;;;;1.75;1.48;;;22.80;99.90;;;;;;4968893;28;20210;-66
2023/08/15 01:38:46;;;;;;;1.65;1.55;;;22.80;99.90;;;;;;4968438;28;20285;-66
2023/08/15 01:41:19;;;;;;;2.00;1.55;;;22.80;99.90;;;;;;4968675;28;20330;-66
2023/08/15 01:43:48;;;;;;;1.67;1.50;;;22.80;99.90;;;;;;4949348;29;20314;-66
2023/08/15 01:46:14;;;;;;;2.42;1.70;;;22.70;99.90;;;;;;4949402;28;20327;-66
2023/08/15 01:48:42;;;;;;;4.30;2.00;;;22.70;99.90;;;;;;4949496;28;20720;-66
2023/08/15 01:51:10;;;;;;;1.52;1.42;;;22.70;99.90;;;;;;4949441;28;20984;-66
2023/08/15 01:53:37;;;;;;;3.03;1.77;;;22.60;99.90;;;;;;4954326;28;20294;-66
2023/08/15 01:56:06;;;;;;;3.00;1.98;;;22.60;99.90;;;;;;4969067;28;20232;-66
2023/08/15 01:58:33;;;;;;;3.13;1.73;;;22.60;99.90;;;;;;4968913;28;20211;-66
2023/08/15 02:01:01;;;;;;;2.10;1.90;;;22.60;99.90;;;;;;4968563;28;20657;-66
2023/08/15 02:03:28;;;;;;;1.42;1.40;;;22.60;99.90;;;;;;4967895;28;20235;-66
2023/08/15 02:05:55;;;;;;;1.75;1.65;;;22.60;99.90;;;;;;4967595;28;20214;-66
2023/08/15 02:08:22;;;;;;;2.03;1.83;;;22.60;99.90;;;;;;4968418;28;20238;-66
2023/08/15 02:10:50;;;;;;;1.98;1.85;;;22.60;99.90;;;;;;4968018;28;20246;-66
2023/08/15 02:13:18;;;;;;;2.80;1.90;;;22.60;99.90;;;;;;4968333;28;20207;-66
2023/08/15 02:15:45;;;;;;;2.20;2.00;;;22.60;99.90;;;;;;4967653;28;20213;-67
2023/08/15 02:18:12;;;;;;;2.20;2.00;;;22.60;99.90;;;;;;4967661;28;20257;-66
2023/08/15 02:20:39;;;;;;;2.25;1.77;;;22.60;99.90;;;;;;4967637;28;20211;-66
2023/08/15 02:23:06;;;;;;;3.03;1.88;;;22.50;99.90;;;;;;4967220;28;20345;-66
2023/08/15 02:25:33;;;;;;;1.90;1.80;;;22.50;99.90;;;;;;4967045;28;20214;-66
2023/08/15 02:27:59;;;;;;;2.10;2.00;;;22.50;99.90;;;;;;4964803;28;20213;-66
2023/08/15 02:30:28;;;;;;;3.97;1.70;;;22.50;99.90;;;;;;4966247;28;20207;-66
2023/08/15 02:32:54;;;;;;;2.60;1.92;;;22.50;99.90;;;;;;4966267;28;20330;-66
2023/08/15 02:35:21;;;;;;;1.85;1.73;;;22.50;99.90;;;;;;4966050;28;20301;-66
2023/08/15 02:37:48;;;;;;;2.53;1.67;;;22.40;99.90;;;;;;4966152;28;20656;-66
2023/08/15 02:40:15;;;;;;;1.90;1.80;;;22.40;99.90;;;;;;4965698;28;20221;-66
2023/08/15 02:42:42;;;;;;;3.60;2.08;;;22.40;99.90;;;;;;4966304;28;20382;-66
2023/08/15 02:45:09;;;;;;;2.30;1.80;;;22.40;99.90;;;;;;4966037;28;20852;-66
2023/08/15 02:47:38;;;;;;;2.40;2.13;;;22.40;99.90;;;;;;4966350;28;20206;-66
2023/08/15 02:50:05;;;;;;;2.33;1.90;;;22.40;99.90;;;;;;4965723;28;20302;-66
2023/08/15 02:52:32;;;;;;;3.15;1.73;;;22.40;99.90;;;;;;4965555;28;20629;-66
2023/08/15 02:54:59;;;;;;;4.30;1.90;;;22.40;99.90;;;;;;4965700;28;20210;-66
2023/08/15 02:57:26;;;;;;;2.08;1.98;;;22.30;99.90;;;;;;4965521;28;20211;-66
2023/08/15 02:59:53;;;;;;;1.95;1.85;;;22.30;99.90;;;;;;4965489;28;20206;-67
2023/08/15 03:02:20;;;;;;;2.78;1.92;;;22.30;99.90;;;;;;4965259;28;20305;-66
2023/08/15 03:04:48;;;;;;;2.25;2.13;;;22.30;99.90;;;;;;4952553;28;20884;-66
2023/08/15 03:07:15;;;;;;;2.35;2.03;;;22.30;99.90;;;;;;4964683;28;20297;-66
2023/08/15 03:09:42;;;;;;;2.65;1.88;;;22.20;99.90;;;;;;4966708;28;20306;-66
2023/08/15 03:12:09;;;;;;;2.60;2.40;;;22.20;99.90;;;;;;4966708;28;20273;-66
2023/08/15 03:14:36;;;;;;;2.25;2.05;;;22.20;99.90;;;;;;4976191;28;20214;-66
2023/08/15 03:17:02;;;;;;;2.58;2.30;;;22.20;99.90;;;;;;4970012;28;20294;-66
2023/08/15 03:19:29;;;;;;;2.97;2.17;;;22.20;99.90;;;;;;4966437;28;20277;-66
2023/08/15 03:21:57;;;;;;;2.55;2.35;;;22.20;99.90;;;;;;4966513;28;20254;-66
2023/08/15 03:24:25;;;;;;;2.50;2.30;;;22.20;99.90;;;;;;4966418;28;20342;-66
2023/08/15 03:26:52;;;;;;;2.97;2.40;;;22.20;99.90;;;;;;4967011;28;20302;-66
2023/08/15 03:29:19;;;;;;;3.95;2.38;;;22.20;99.90;;;;;;4966705;28;20257;-66
2023/08/15 03:31:46;;;;;;;2.88;2.67;;;22.20;99.90;;;;;;4966511;28;21029;-66
2023/08/15 03:34:12;;;;;;;2.28;2.17;;;22.20;99.90;;;;;;4966667;28;20929;-66
2023/08/15 03:36:40;;;;;;;2.35;2.15;;;22.10;99.90;;;;;;4966671;28;20681;-66
2023/08/15 03:39:09;;;;;;;2.75;2.55;;;22.10;99.90;;;;;;4967095;28;20238;-66
2023/08/15 03:41:35;;;;;;;2.42;2.22;;;22.20;99.90;;;;;;4966390;28;20297;-66
2023/08/15 03:44:02;;;;;;;4.20;2.55;;;22.10;99.90;;;;;;4966725;28;20234;-66
2023/08/15 03:46:29;;;;;;;2.95;2.40;;;22.10;99.90;;;;;;4966489;28;20215;-66
2023/08/15 03:48:56;;;;;;;2.30;2.10;;;22.10;99.90;;;;;;4966297;28;20796;-66
2023/08/15 03:51:23;;;;;;;2.63;2.42;;;22.10;99.90;;;;;;4966035;28;20732;-66
2023/08/15 03:53:50;;;;;;;2.90;2.17;;;22.10;99.90;;;;;;4966065;28;20207;-66
2023/08/15 03:56:18;;;;;;;2.42;2.33;;;22.10;99.90;;;;;;4966169;28;20206;-66
2023/08/15 03:58:45;;;;;;;2.80;2.60;;;22.00;99.90;;;;;;4966054;28;20242;-66
2023/08/15 04:01:12;;;;;;;2.97;2.50;;;22.10;99.90;;;;;;4966734;28;20293;-66
2023/08/15 04:03:38;;;;;;;2.92;2.65;;;22.00;99.90;;;;;;4966524;28;20244;-66
2023/08/15 04:06:05;;;;;;;4.07;2.80;;;22.10;99.90;;;;;;4966549;28;20313;-66
2023/08/15 04:08:35;;;;;;;3.03;2.70;;;22.10;99.90;;;;;;4966339;28;20211;-66
2023/08/15 04:11:02;;;;;;;4.15;2.80;;;22.00;99.90;;;;;;4965953;28;20719;-66
2023/08/15 04:13:30;;;;;;;3.65;2.97;;;22.10;99.90;;;;;;4966211;28;20224;-66
2023/08/15 04:15:57;;;;;;;4.18;2.90;;;22.00;99.90;;;;;;4966230;28;20205;-66
2023/08/15 04:18:24;;;;;;;3.50;3.20;;;22.00;99.90;;;;;;4966378;28;20217;-66
2023/08/15 04:20:51;;;;;;;4.32;4.00;;;22.00;99.90;;;;;;4966435;28;20214;-66
2023/08/15 04:23:18;;;;;;;4.28;3.97;;;22.00;99.90;;;;;;4965728;28;20718;-66
2023/08/15 04:25:45;;;;;;;4.85;4.43;;;22.00;99.90;;;;;;4966241;28;20618;-66
2023/08/15 04:28:12;;;;;;;6.63;4.60;;;22.00;99.90;;;;;;4965389;28;20211;-66
2023/08/15 04:30:41;;;;;;;5.57;4.10;;;22.00;99.90;;;;;;4965978;28;20301;-66
2023/08/15 04:33:07;;;;;;;4.95;4.55;;;22.00;99.90;;;;;;4965884;28;20280;-66
2023/08/15 04:35:35;;;;;;;3.97;3.72;;;22.00;99.90;;;;;;4965919;28;20301;-66
2023/08/15 04:38:01;;;;;;;4.45;4.13;;;22.10;99.90;;;;;;4966021;28;20688;-66
2023/08/15 04:40:34;;;;;;;4.28;3.92;;;22.10;99.90;;;;;;4965542;28;20686;-66
2023/08/15 04:43:02;;;;;;;4.43;4.13;;;22.10;99.90;;;;;;4965196;28;20234;-66
2023/08/15 04:45:30;;;;;;;4.30;4.00;;;22.10;99.90;;;;;;4965395;28;21031;-66
2023/08/15 04:47:58;;;;;;;4.65;4.25;;;22.00;99.90;;;;;;4965409;28;20297;-66
2023/08/15 04:50:26;;;;;;;6.75;4.38;;;22.10;99.90;;;;;;4965522;28;20242;-66
2023/08/15 04:52:53;;;;;;;4.70;4.18;;;22.10;99.90;;;;;;4965609;28;20302;-66
2023/08/15 04:55:20;;;;;;;4.70;4.30;;;22.10;99.90;;;;;;4966004;28;20341;-66
2023/08/15 04:57:47;;;;;;;4.80;4.40;;;22.10;99.90;;;;;;4965506;28;20246;-66
2023/08/15 05:00:18;;;;;;;4.70;4.30;;;22.10;99.90;;;;;;4965681;28;20211;-65
2023/08/15 05:02:46;;;;;;;5.15;4.38;;;22.00;99.90;;;;;;4965609;28;20195;-65
2023/08/15 05:05:15;;;;;;;5.55;5.10;;;22.00;99.90;;;;;;4965171;28;20309;-66
2023/08/15 05:07:43;;;;;;;5.13;4.63;;;22.00;99.90;;;;;;4964558;28;20231;-65
2023/08/15 05:10:10;;;;;;;4.75;4.35;;;22.00;99.90;;;;;;4965224;28;20610;-65
2023/08/15 05:12:40;;;;;;;4.93;4.53;;;22.00;99.90;;;;;;4965486;28;20218;-65
2023/08/15 05:15:09;;;;;;;5.25;4.68;;;22.00;99.90;;;;;;4965213;28;20219;-66
2023/08/15 05:17:36;;;;;;;3.92;3.72;;;22.00;99.90;;;;;;4965653;28;20589;-66
2023/08/15 05:20:04;;;;;;;4.35;4.05;;;22.00;99.90;;;;;;4965292;28;20223;-66
2023/08/15 05:22:33;;;;;;;4.20;3.88;;;22.00;99.90;;;;;;4964979;28;20736;-66
2023/08/15 05:25:00;;;;;;;3.90;3.38;;;22.00;99.90;;;;;;4964764;28;20381;-66
2023/08/15 05:27:27;;;;;;;5.25;3.50;;;22.00;99.90;;;;;;4965322;28;20211;-65
2023/08/15 05:29:54;;;;;;;5.03;3.30;;;22.10;99.90;;;;;;4965716;28;20494;-66
2023/08/15 05:32:21;;;;;;;4.10;3.70;;;22.10;99.90;;;;;;4965031;28;20289;-66
2023/08/15 05:34:49;;;;;;;3.50;3.20;;;22.10;99.90;;;;;;4965507;28;20308;-66
2023/08/15 05:37:16;;;;;;;4.05;3.45;;;22.10;99.90;;;;;;4965107;28;20987;-65
2023/08/15 05:39:44;;;;;;;5.57;3.55;;;22.10;99.90;;;;;;4966694;28;20219;-65
2023/08/15 05:42:17;;;;;;;4.47;3.30;;;22.10;99.90;;;;;;4968712;28;20210;-66
2023/08/15 05:44:44;;;;;;;4.00;3.33;;;22.10;99.90;;;;;;4969364;28;20349;-66
2023/08/15 05:47:12;;;;;;;5.82;3.30;;;22.10;99.90;;;;;;4968481;28;20310;-66
2023/08/15 05:49:40;;;;;;;5.07;4.05;;;22.10;99.90;;;;;;4968758;28;20627;-66
2023/08/15 05:52:07;;;;;;;4.35;3.60;;;22.10;99.90;;;;;;4968603;28;20246;-66
2023/08/15 05:54:34;;;;;;;3.38;3.08;;;22.10;99.90;;;;;;4968572;28;20215;-66
2023/08/15 05:57:02;;;;;;;3.30;3.10;;;22.20;99.90;;;;;;4968301;28;20736;-67
2023/08/15 05:59:29;;;;;;;3.22;3.03;;;22.20;99.90;;;;;;4968316;28;20211;-67
2023/08/15 06:01:56;;;;;;;4.10;2.90;;;22.20;99.90;;;;;;4968412;28;20725;-66
2023/08/15 06:04:24;;;;;;;9.25;5.45;;;22.20;99.90;;;;;;4985933;28;20241;-67
2023/08/15 06:06:51;;;;;;;4.72;3.83;;;22.20;99.90;;;;;;4987636;28;20202;-67
2023/08/15 06:09:18;;;;;;;3.60;3.30;;;22.20;99.90;;;;;;4987456;28;20230;-67
2023/08/15 06:11:45;;;;;;;14.23;5.70;;;22.30;99.90;;;;;;4972834;28;20215;-67
2023/08/15 06:14:14;;;;;;;8.15;4.18;;;22.30;99.90;;;;;;4954441;28;20695;-66
2023/08/15 06:16:41;;;;;;;3.63;3.33;;;22.20;99.90;;;;;;4948963;28;20223;-67
2023/08/15 06:19:08;;;;;;;4.30;3.63;;;22.30;99.90;;;;;;4948937;28;20243;-67
2023/08/15 06:21:35;;;;;;;4.03;3.72;;;22.30;99.90;;;;;;4948615;28;20709;-67
2023/08/15 06:24:03;;;;;;;3.97;3.15;;;22.30;99.90;;;;;;4948826;28;20290;-66
2023/08/15 06:26:32;;;;;;;3.95;3.40;;;22.30;99.90;;;;;;4948629;28;20646;-67
2023/08/15 06:28:59;;;;;;;3.25;2.92;;;22.40;99.90;;;;;;4948934;28;20208;-67
2023/08/15 06:31:28;;;;;;;3.75;3.45;;;22.40;99.90;;;;;;4948838;28;20286;-67
2023/08/15 06:33:55;;;;;;;3.53;2.97;;;22.40;99.90;;;;;;4949110;28;20734;-67
2023/08/15 06:36:22;;;;;;;4.68;3.70;;;22.30;99.90;;;;;;4948880;28;20211;-67
2023/08/15 06:38:50;;;;;;;3.40;3.20;;;22.40;99.90;;;;;;4948595;28;20855;-67
2023/08/15 06:41:17;;;;;;;3.83;3.40;;;22.40;99.90;;;;;;4959676;28;20665;-67
2023/08/15 06:43:44;;;;;;;3.67;3.20;;;22.50;99.90;;;;;;4967600;28;20215;-66
2023/08/15 06:46:12;;;;;;;3.70;3.20;;;22.50;99.90;;;;;;4967484;28;20301;-67
2023/08/15 06:48:42;;;;;;;4.55;3.15;;;22.50;99.90;;;;;;4968093;28;20281;-67
2023/08/15 06:51:09;;;;;;;3.20;2.90;;;22.50;99.90;;;;;;4967013;28;20215;-67
2023/08/15 06:53:36;;;;;;;3.25;3.05;;;22.60;99.90;;;;;;4967987;28;20210;-66
2023/08/15 06:56:03;;;;;;;3.22;3.03;;;22.60;99.90;;;;;;4967479;28;20211;-67
2023/08/15 06:58:30;;;;;;;3.45;3.08;;;22.60;99.90;;;;;;4967311;28;20566;-67
2023/08/15 07:00:57;;;;;;;3.63;3.30;;;22.70;99.90;;;;;;4967429;28;20215;-66
2023/08/15 07:03:25;;;;;;;5.32;3.25;;;22.70;99.90;;;;;;4967099;28;20616;-66
2023/08/15 07:05:54;;;;;;;3.78;3.42;;;22.70;99.90;;;;;;4967239;28;20293;-67
2023/08/15 07:08:21;;;;;;;3.95;3.17;;;22.70;99.90;;;;;;4966899;28;20218;-67
2023/08/15 07:10:54;;;;;;;3.15;2.92;;;22.80;99.90;;;;;;4957923;28;20222;-67
2023/08/15 07:13:21;;;;;;;3.20;3.03;;;22.80;99.90;;;;;;4967007;28;20199;-67
2023/08/15 07:15:53;;;;;;;3.75;3.20;;;22.80;99.90;;;;;;4967700;28;20540;-67
2023/08/15 07:18:20;;;;;;;2.70;2.60;;;22.90;99.90;;;;;;4967133;28;20199;-66
2023/08/15 07:20:47;;;;;;;3.40;3.20;;;22.90;99.90;;;;;;4967054;28;20211;-67
2023/08/15 07:23:16;;;;;;;3.08;2.88;;;22.90;99.90;;;;;;4967533;28;20265;-67
2023/08/15 07:25:43;;;;;;;4.20;3.33;;;23.00;99.90;;;;;;4966732;28;20274;-67
2023/08/15 07:28:11;;;;;;;3.20;3.00;;;23.10;99.90;;;;;;4967330;28;20214;-66
2023/08/15 07:30:38;;;;;;;3.50;3.20;;;23.10;99.90;;;;;;4966842;28;20242;-67
2023/08/15 07:33:06;;;;;;;3.13;2.92;;;23.10;99.90;;;;;;4967035;28;20305;-67
2023/08/15 07:35:33;;;;;;;3.00;2.80;;;23.20;99.90;;;;;;4966716;28;20670;-67
2023/08/15 07:38:00;;;;;;;3.20;2.80;;;23.20;99.90;;;;;;4966824;28;20218;-67
2023/08/15 07:40:29;;;;;;;3.10;2.90;;;23.30;99.90;;;;;;4966384;28;20211;-67
2023/08/15 07:42:56;;;;;;;3.15;2.95;;;23.30;99.90;;;;;;4966447;28;20920;-67
2023/08/15 07:45:23;;;;;;;3.63;3.20;;;23.30;99.90;;;;;;4966018;28;20235;-67
2023/08/15 07:47:53;;;;;;;3.17;2.97;;;23.40;99.90;;;;;;4966345;28;20210;-67
2023/08/15 07:50:22;;;;;;;3.88;3.20;;;23.40;99.90;;;;;;4966062;28;20246;-67
2023/08/15 07:52:51;;;;;;;3.53;3.17;;;23.40;99.90;;;;;;4966406;28;20301;-67
2023/08/15 07:55:18;;;;;;;4.38;3.47;;;23.60;99.90;;;;;;4965978;28;20210;-66
2023/08/15 07:57:46;;;;;;;5.20;3.25;;;23.60;99.90;;;;;;4966389;28;20215;-67
2023/08/15 08:00:15;;;;;;;4.75;3.35;;;23.60;99.90;;;;;;4966013;28;20214;-67
2023/08/15 08:02:43;;;;;;;3.42;3.13;;;23.70;99.90;;;;;;4965209;28;20211;-67
2023/08/15 08:05:14;;;;;;;3.28;2.97;;;23.70;99.90;;;;;;4964957;28;20239;-67
2023/08/15 08:07:42;;;;;;;3.85;3.55;;;23.80;99.90;;;;;;4946794;28;20222;-67
2023/08/15 08:10:10;;;;;;;5.60;3.28;;;23.80;99.90;;;;;;4947411;28;20262;-67
2023/08/15 08:12:37;;;;;;;4.82;2.92;;;23.90;99.90;;;;;;4947158;28;20302;-67
2023/08/15 08:15:08;;;;;;;3.97;3.58;;;23.90;99.90;;;;;;4946689;28;20274;-67
2023/08/15 08:17:35;;;;;;;3.85;3.60;;;23.90;99.90;;;;;;4946517;28;20936;-67
2023/08/15 08:20:07;;;;;;;3.67;3.38;;;24.00;99.90;;;;;;4946451;28;20207;-67
2023/08/15 08:22:34;;;;;;;4.53;3.20;;;24.00;99.90;;;;;;4946779;28;20196;-67
2023/08/15 08:25:11;;;;;;;3.65;3.30;;;24.10;99.90;;;;;;4946613;28;20247;-67
2023/08/15 08:27:38;;;;;;;3.72;3.00;;;24.20;99.90;;;;;;4946657;28;20715;-67
2023/08/15 08:30:09;;;;;;;3.25;3.00;;;24.30;99.90;;;;;;4946913;28;20222;-67
2023/08/15 08:32:36;;;;;;;3.65;3.33;;;24.30;99.90;;;;;;4946745;28;20277;-67
2023/08/15 08:35:04;;;;;;;3.33;3.13;;;24.30;99.90;;;;;;4946802;28;20211;-67
2023/08/15 08:37:31;;;;;;;3.70;3.20;;;24.30;99.90;;;;;;4946591;28;20215;-66
2023/08/15 08:39:58;;;;;;;3.30;3.08;;;24.40;99.90;;;;;;4957206;28;20211;-66
2023/08/15 08:42:25;;;;;;;5.57;3.10;;;24.40;99.90;;;;;;4965703;28;20964;-67
2023/08/15 08:44:52;;;;;;;3.67;3.08;;;24.50;99.90;;;;;;4966016;28;20643;-67
2023/08/15 08:47:25;;;;;;;3.45;3.20;;;24.50;99.90;;;;;;4965728;28;20575;-67
2023/08/15 08:49:53;;;;;;;3.42;3.13;;;24.60;99.90;;;;;;4965724;28;20203;-67
2023/08/15 08:52:21;;;;;;;3.63;3.30;;;24.60;99.90;;;;;;4976363;28;20665;-67
2023/08/15 08:54:48;;;;;;;3.60;3.30;;;24.70;99.90;;;;;;4984967;28;20684;-67
2023/08/15 08:57:15;;;;;;;3.45;3.25;;;24.70;99.90;;;;;;4984878;28;20680;-67
2023/08/15 08:59:44;;;;;;;7.60;6.85;;;24.80;99.90;;;;;;4985216;28;20268;-66
2023/08/15 09:02:14;;;;;;;9.30;8.48;;;24.90;99.90;;;;;;4967812;28;20207;-67
2023/08/15 09:04:42;;;;;;;4.80;4.40;;;25.00;99.90;;;;;;4965571;28;20297;-67
2023/08/15 09:07:10;;;;;;;4.03;3.58;;;25.10;99.90;;;;;;4965479;28;20712;-67
2023/08/15 09:09:37;;;;;;;4.03;3.63;;;25.20;99.90;;;;;;4965696;28;20231;-67
2023/08/15 09:12:06;;;;;;;3.85;3.60;;;25.20;99.90;;;;;;4965631;28;20285;-67
2023/08/15 09:14:33;;;;;;;3.53;3.30;;;25.30;99.90;;;;;;4967998;28;20207;-66
2023/08/15 09:17:00;;;;;;;4.15;3.78;;;25.30;99.90;;;;;;4969577;28;20234;-67
2023/08/15 09:19:26;;;;;;;3.75;3.55;;;25.30;99.90;;;;;;4969253;28;20673;-67
2023/08/15 09:21:55;;;;;;;4.20;3.72;;;25.30;99.90;;;;;;4969300;28;20293;-67
2023/08/15 09:24:27;;;;;;;3.92;3.63;;;25.40;99.90;;;;;;4968815;28;20325;-67
2023/08/15 09:26:53;;;;;;;4.95;3.58;;;25.40;99.90;;;;;;4968906;28;20293;-67
2023/08/15 09:29:22;;;;;;;4.47;4.00;;;25.40;99.90;;;;;;4969280;28;20203;-67
2023/08/15 09:31:49;;;;;;;4.65;4.22;;;25.60;99.90;;;;;;4968993;28;20242;-67
2023/08/15 09:34:16;;;;;;;4.10;3.80;;;25.70;99.90;;;;;;4969426;28;20210;-67
2023/08/15 09:36:43;;;;;;;8.00;4.20;;;25.80;99.90;;;;;;4959802;28;20298;-67
2023/08/15 09:39:12;;;;;;;5.82;4.20;;;26.00;99.90;;;;;;4949247;28;20247;-67
2023/08/15 09:41:42;;;;;;;4.88;4.45;;;26.10;99.90;;;;;;4963652;28;20211;-67
2023/08/15 09:44:09;;;;;;;5.03;4.40;;;26.30;99.90;;;;;;4968923;28;20211;-67
2023/08/15 09:46:36;;;;;;;4.38;4.05;;;26.40;99.90;;;;;;4969071;28;20242;-67
2023/08/15 09:49:04;;;;;;;4.80;4.50;;;26.40;99.90;;;;;;4969109;28;20301;-67
2023/08/15 09:51:32;;;;;;;4.70;4.35;;;26.40;99.90;;;;;;4969064;28;20273;-67
2023/08/15 09:54:02;;;;;;;4.30;4.00;;;26.30;99.90;;;;;;4968895;28;20215;-67
2023/08/15 09:56:30;;;;;;;6.18;4.60;;;26.20;99.90;;;;;;4968740;28;20241;-67
2023/08/15 09:58:57;;;;;;;4.32;4.10;;;26.20;99.90;;;;;;4968600;28;20219;-67
2023/08/15 10:01:28;;;;;;;4.53;4.22;;;26.20;99.90;;;;;;4968605;28;20306;-67
2023/08/15 10:03:56;;;;;;;4.00;3.80;;;26.20;99.90;;;;;;4968673;28;20306;-67
2023/08/15 10:06:24;;;;;;;4.70;4.15;;;26.10;99.90;;;;;;4968884;28;20235;-67
2023/08/15 10:08:52;;;;;;;5.00;4.50;;;26.10;99.90;;;;;;4968094;28;20728;-67
2023/08/15 10:11:19;;;;;;;5.13;4.20;;;26.10;99.90;;;;;;4968415;28;20250;-67
2023/08/15 10:13:50;;;;;;;4.63;4.30;;;26.00;99.90;;;;;;4968774;28;20211;-67
2023/08/15 10:16:17;;;;;;;4.45;4.15;;;26.00;99.90;;;;;;4958753;28;20195;-67
2023/08/15 10:18:53;;;;;;;4.93;4.63;;;25.90;99.90;;;;;;4949352;28;20219;-67
2023/08/15 10:21:20;;;;;;;5.50;4.55;;;25.90;99.90;;;;;;4949280;28;20290;-67
2023/08/15 10:23:47;;;;;;;5.00;4.70;;;26.00;99.90;;;;;;4948993;28;20298;-67
2023/08/15 10:26:14;;;;;;;5.50;4.68;;;25.90;99.90;;;;;;4948455;28;20235;-67
2023/08/15 10:28:42;;;;;;;4.72;4.43;;;25.90;99.90;;;;;;4949358;28;20221;-67
2023/08/15 10:31:11;;;;;;;5.65;5.07;;;25.90;99.90;;;;;;4948887;28;20262;-68
2023/08/15 10:33:38;;;;;;;4.68;4.30;;;25.90;99.90;;;;;;4968395;28;20214;-67
2023/08/15 10:36:09;;;;;;;5.15;4.75;;;25.90;99.90;;;;;;4968087;28;20215;-67
2023/08/15 10:38:43;;;;;;;4.90;4.50;;;26.00;99.90;;;;;;4967827;28;20301;-67
2023/08/15 10:41:14;;;;;;;5.13;4.60;;;26.10;99.90;;;;;;4967701;28;20213;-66
2023/08/15 10:43:47;;;;;;;5.13;4.82;;;26.10;99.90;;;;;;4968071;28;20217;-66
2023/08/15 10:46:17;;;;;;;5.28;4.85;;;26.20;99.90;;;;;;4968015;28;20230;-67
2023/08/15 10:48:47;;;;;;;5.70;5.18;;;26.40;99.90;;;;;;4968401;28;20210;-67
2023/08/15 10:51:18;;;;;;;5.22;4.72;;;26.50;99.90;;;;;;4968147;28;20355;-67
2023/08/15 10:53:47;;;;;;;5.40;4.90;;;26.70;99.90;;;;;;4967993;28;20223;-67
2023/08/15 10:56:14;;;;;;;4.95;4.72;;;26.90;99.90;;;;;;4948444;28;20730;-67
2023/08/15 10:58:42;;;;;;;5.53;5.15;;;27.00;99.90;;;;;;4948384;28;20254;-67
2023/08/15 11:01:09;;;;;;;5.72;5.20;;;27.30;99.90;;;;;;4948659;28;20299;-67
2023/08/15 11:03:38;;;;;;;5.88;5.35;;;27.40;99.90;;;;;;4948339;28;20207;-68
2023/08/15 11:06:08;;;;;;;7.53;5.32;;;27.70;99.90;;;;;;4948566;28;20322;-67
2023/08/15 11:08:40;;;;;;;5.25;4.75;;;27.80;99.90;;;;;;4947679;28;20322;-67
2023/08/15 11:11:07;;;;;;;7.60;4.75;;;27.90;99.90;;;;;;4957588;28;20693;-66
2023/08/15 11:13:37;;;;;;;5.15;4.75;;;27.90;99.90;;;;;;4966995;28;20307;-67
2023/08/15 11:16:05;;;;;;;5.30;5.00;;;27.90;99.90;;;;;;4966671;28;20725;-67
2023/08/15 11:18:32;;;;;;;5.72;5.13;;;28.00;99.90;;;;;;4966997;28;20788;-67
2023/08/15 11:21:01;;;;;;;5.15;4.85;;;28.00;99.90;;;;;;4967095;28;20214;-67
2023/08/15 11:23:29;;;;;;;5.32;5.00;;;28.10;99.90;;;;;;4966990;28;20222;-67
2023/08/15 11:26:01;;;;;;;5.20;4.90;;;28.20;99.90;;;;;;4967350;28;20231;-68
2023/08/15 11:28:28;;;;;;;5.80;4.90;;;28.30;99.90;;;;;;4966962;28;20286;-67
2023/08/15 11:30:55;;;;;;;7.22;5.00;;;28.50;99.90;;;;;;4966884;28;20246;-67
2023/08/15 11:33:23;;;;;;;5.28;4.78;;;28.50;99.90;;;;;;4966668;28;20242;-67
2023/08/15 11:35:50;;;;;;;4.93;4.45;;;28.60;99.90;;;;;;4967215;28;20238;-67
2023/08/15 11:38:19;;;;;;;17.80;16.20;;;28.80;99.90;;;;;;4966626;28;20250;-67
2023/08/15 11:40:47;;;;;;;6.47;5.97;;;28.90;99.90;;;;;;4966902;28;20232;-67
2023/08/15 11:43:15;;;;;;;4.40;4.20;;;29.00;99.90;;;;;;4966811;28;20762;-67
2023/08/15 11:45:44;;;;;;;4.78;4.30;;;29.10;99.90;;;;;;4966927;28;20254;-67
2023/08/15 11:48:11;;;;;;;4.97;4.50;;;29.20;99.90;;;;;;4966683;28;20625;-67
2023/08/15 11:50:41;;;;;;;5.32;4.82;;;29.40;99.90;;;;;;4966338;28;20207;-67
2023/08/15 11:53:12;;;;;;;4.65;4.22;;;29.50;99.90;;;;;;4966502;28;20237;-67
2023/08/15 11:55:41;;;;;;;4.88;4.30;;;29.70;99.90;;;;;;4966687;28;20221;-67
2023/08/15 11:58:25;;;;;;;4.63;4.32;;;29.80;99.90;;;;;;4966630;28;20301;-67
2023/08/15 12:00:53;;;;;;;4.63;4.32;;;29.80;99.90;;;;;;4966603;28;20642;-67
2023/08/15 12:03:19;;;;;;;4.65;4.38;;;30.00;99.90;;;;;;4965875;28;20215;-67
2023/08/15 12:05:47;;;;;;;4.57;4.18;;;30.00;99.90;;;;;;4966255;28;20240;-67
2023/08/15 12:08:15;;;;;;;6.07;4.45;;;30.20;99.90;;;;;;4966149;28;20222;-67
2023/08/15 12:10:45;;;;;;;5.07;4.65;;;30.30;99.90;;;;;;4966595;28;20253;-67
2023/08/15 12:13:12;;;;;;;4.60;4.20;;;30.40;99.90;;;;;;4966247;28;20573;-67
2023/08/15 12:15:39;;;;;;;5.13;4.60;;;30.50;99.90;;;;;;4966149;28;20340;-67
2023/08/15 12:18:06;;;;;;;5.15;4.72;;;30.50;99.90;;;;;;4966383;28;20294;-67
2023/08/15 12:20:33;;;;;;;6.00;4.50;;;30.60;99.90;;;;;;4966237;28;20313;-67
2023/08/15 12:23:00;;;;;;;4.55;4.15;;;30.60;99.90;;;;;;4965594;28;20221;-67
2023/08/15 12:25:28;;;;;;;5.78;4.28;;;30.70;99.90;;;;;;4965578;28;21053;-67
2023/08/15 12:27:56;;;;;;;4.22;3.92;;;30.80;99.90;;;;;;4965818;28;20730;-67
2023/08/15 12:30:23;;;;;;;4.45;4.15;;;30.90;99.90;;;;;;4966126;28;20215;-67
2023/08/15 12:32:50;;;;;;;4.43;4.07;;;30.90;99.90;;;;;;4965481;28;20238;-67
2023/08/15 12:35:17;;;;;;;3.97;3.67;;;31.00;99.90;;;;;;4965838;28;20305;-67
2023/08/15 12:37:44;;;;;;;4.18;3.85;;;31.20;99.90;;;;;;4979859;28;20228;-68
2023/08/15 12:40:11;;;;;;;3.70;3.40;;;31.30;99.90;;;;;;4983101;28;20297;-67
2023/08/15 12:42:38;;;;;;;6.13;3.78;;;31.40;99.90;;;;;;4965853;28;20211;-66
2023/08/15 12:45:08;;;;;;;4.22;3.60;;;31.60;99.90;;;;;;4965822;28;20210;-66
2023/08/15 12:47:35;;;;;;;4.10;3.72;;;31.70;99.90;;;;;;4961707;28;20235;-66
2023/08/15 12:50:03;;;;;;;6.97;3.83;;;31.80;99.90;;;;;;4968187;28;20262;-66